Time,TemperatureF,DewpointF,PressureIn,WindDirection,WindDirectionDegrees,WindSpeedMPH,WindSpeedGustMPH,Humidity,HourlyPrecipIn,Conditions,Clouds,dailyrainin,SoftwareType,DateUTC
2013-02-06 00:01:00,34.0,28.0,30.03,ESE,110,5.0,-999.0,80,-99.99,,,-99.99,,2013-02-06 06:01:00,
2013-02-06 00:11:00,36.0,28.0,30.02,ESE,110,3.0,-999.0,74,-99.99,,,-99.99,,2013-02-06 06:11:00,
2013-02-06 00:21:00,36.0,30.0,30.02,ESE,120,5.0,-999.0,80,-99.99,,,-99.99,,2013-02-06 06:21:00,
2013-02-06 00:31:00,37.0,30.0,30.03,SE,130,7.0,-999.0,74,-99.99,,,-99.99,,2013-02-06 06:31:00,
2013-02-06 00:42:00,37.0,30.0,30.03,SE,130,7.0,-999.0,74,-99.99,,,-99.99,,2013-02-06 06:42:00,
2013-02-06 00:51:00,37.0,30.0,30.02,SE,130,8.0,-999.0,74,-99.99,,,-99.99,,2013-02-06 06:51:00,
2013-02-06 01:01:00,37.0,30.0,30.02,SE,130,8.0,-999.0,74,-99.99,,,-99.99,,2013-02-06 07:01:00,
2013-02-06 01:11:00,37.0,28.0,30.01,ESE,120,10.0,-999.0,69,-99.99,,,-99.99,,2013-02-06 07:11:00,
2013-02-06 01:21:00,37.0,28.0,30.01,ESE,120,9.0,-999.0,69,-99.99,,,-99.99,,2013-02-06 07:21:00,
2013-02-06 01:32:00,37.0,28.0,30.01,ESE,110,8.0,-999.0,69,-99.99,,,-99.99,,2013-02-06 07:32:00,
2013-02-06 01:41:00,37.0,28.0,30.01,ESE,110,7.0,-999.0,69,-99.99,,,-99.99,,2013-02-06 07:41:00,
2013-02-06 01:51:00,37.0,28.0,30.01,ESE,120,6.0,-999.0,69,-99.99,,,-99.99,,2013-02-06 07:51:00,
2013-02-06 02:01:00,37.0,28.0,30.01,ESE,120,6.0,-999.0,69,-99.99,,,-99.99,,2013-02-06 08:01:00,
2013-02-06 02:11:00,37.0,28.0,30.01,ESE,120,6.0,-999.0,69,-99.99,,,-99.99,,2013-02-06 08:11:00,
2013-02-06 02:21:00,36.0,28.0,30.01,SE,130,5.0,-999.0,74,-99.99,,,-99.99,,2013-02-06 08:21:00,
2013-02-06 02:31:00,36.0,28.0,30.01,ESE,120,5.0,-999.0,74,-99.99,,,-99.99,,2013-02-06 08:31:00,
2013-02-06 02:41:00,34.0,28.0,30.01,ESE,110,3.0,-999.0,80,-99.99,,,-99.99,,2013-02-06 08:41:00,
2013-02-06 02:53:00,34.0,27.0,30.01,SE,140,3.0,-999.0,74,-99.99,,,-99.99,,2013-02-06 08:53:00,
2013-02-06 03:01:00,34.0,27.0,30.01,SE,140,3.0,-999.0,74,-99.99,,,-99.99,,2013-02-06 09:01:00,
2013-02-06 03:11:00,32.0,27.0,30.00,ESE,120,3.0,-999.0,80,-99.99,,,-99.99,,2013-02-06 09:11:00,
2013-02-06 03:21:00,36.0,28.0,29.99,ESE,120,6.0,-999.0,74,-99.99,,,-99.99,,2013-02-06 09:21:00,
2013-02-06 03:31:00,37.0,28.0,29.98,SE,130,7.0,-999.0,69,-99.99,,,-99.99,,2013-02-06 09:31:00,
2013-02-06 03:41:00,37.0,28.0,29.98,SE,130,7.0,-999.0,69,-99.99,,,-99.99,,2013-02-06 09:41:00,
2013-02-06 03:51:00,36.0,28.0,29.98,ESE,120,7.0,-999.0,74,-99.99,,,-99.99,,2013-02-06 09:51:00,
2013-02-06 04:01:00,36.0,28.0,29.98,ESE,120,7.0,-999.0,74,-99.99,,,-99.99,,2013-02-06 10:01:00,
2013-02-06 04:11:00,36.0,28.0,29.98,SE,130,7.0,-999.0,74,-99.99,,,-99.99,,2013-02-06 10:11:00,
2013-02-06 04:21:00,37.0,28.0,29.98,SE,130,7.0,-999.0,69,-99.99,,,-99.99,,2013-02-06 10:21:00,
2013-02-06 04:31:00,37.0,28.0,29.98,SE,130,6.0,-999.0,69,-99.99,,,-99.99,,2013-02-06 10:31:00,
2013-02-06 04:41:00,36.0,28.0,29.98,SE,130,6.0,-999.0,74,-99.99,,,-99.99,,2013-02-06 10:41:00,
2013-02-06 04:51:00,36.0,28.0,29.98,SE,130,8.0,-999.0,74,-99.99,,,-99.99,,2013-02-06 10:51:00,
2013-02-06 05:01:00,36.0,28.0,29.98,SE,130,8.0,-999.0,74,-99.99,,,-99.99,,2013-02-06 11:01:00,
2013-02-06 05:11:00,36.0,28.0,29.97,SE,130,9.0,-999.0,74,-99.99,,,-99.99,,2013-02-06 11:11:00,
2013-02-06 05:22:00,36.0,28.0,29.97,SE,130,8.0,-999.0,74,-99.99,,,-99.99,,2013-02-06 11:22:00,
2013-02-06 05:32:00,36.0,28.0,29.98,SE,130,9.0,-999.0,74,-99.99,,,-99.99,,2013-02-06 11:32:00,
2013-02-06 05:42:00,36.0,28.0,29.98,SE,130,8.0,-999.0,74,-99.99,,,-99.99,,2013-02-06 11:42:00,
2013-02-06 05:52:00,34.0,28.0,29.98,SE,130,6.0,-999.0,80,-99.99,,,-99.99,,2013-02-06 11:52:00,
2013-02-06 06:02:00,34.0,28.0,29.98,SE,130,6.0,-999.0,80,-99.99,,,-99.99,,2013-02-06 12:02:00,
2013-02-06 06:12:00,34.0,28.0,29.98,SE,140,7.0,-999.0,80,-99.99,,,-99.99,,2013-02-06 12:12:00,
2013-02-06 06:22:00,34.0,28.0,29.98,SE,130,7.0,-999.0,80,-99.99,,,-99.99,,2013-02-06 12:22:00,
2013-02-06 06:32:00,34.0,28.0,29.97,SE,130,8.0,-999.0,80,-99.99,,,-99.99,,2013-02-06 12:32:00,
2013-02-06 06:42:00,34.0,28.0,29.97,SE,130,8.0,-999.0,80,-99.99,,,-99.99,,2013-02-06 12:42:00,
2013-02-06 06:52:00,34.0,28.0,29.96,SE,130,6.0,-999.0,80,-99.99,,,-99.99,,2013-02-06 12:52:00,
2013-02-06 07:01:00,34.0,28.0,29.96,SE,130,6.0,-999.0,80,-99.99,,,-99.99,,2013-02-06 13:01:00,
2013-02-06 07:11:00,34.0,28.0,29.96,ESE,120,7.0,-999.0,80,-99.99,,,-99.99,,2013-02-06 13:11:00,
2013-02-06 07:22:00,32.0,27.0,29.96,ESE,120,7.0,-999.0,80,-99.99,,,-99.99,,2013-02-06 13:22:00,
2013-02-06 07:31:00,32.0,27.0,29.96,ESE,110,7.0,-999.0,80,-99.99,,,-99.99,,2013-02-06 13:31:00,
2013-02-06 07:42:00,32.0,27.0,29.96,ESE,120,6.0,-999.0,80,-99.99,,,-99.99,,2013-02-06 13:42:00,
2013-02-06 07:52:00,32.0,27.0,29.96,ESE,120,7.0,-999.0,80,-99.99,,,-99.99,,2013-02-06 13:52:00,
2013-02-06 08:01:00,32.0,27.0,29.96,ESE,120,7.0,-999.0,80,-99.99,,,-99.99,,2013-02-06 14:01:00,
2013-02-06 08:11:00,32.0,28.0,29.95,ESE,120,6.0,-999.0,86,-99.99,,,-99.99,,2013-02-06 14:11:00,
2013-02-06 08:21:00,34.0,28.0,29.95,ESE,120,8.0,-999.0,80,-99.99,,,-99.99,,2013-02-06 14:21:00,
2013-02-06 08:32:00,34.0,28.0,29.95,ESE,120,8.0,-999.0,80,-99.99,,,-99.99,,2013-02-06 14:32:00,
2013-02-06 08:41:00,34.0,28.0,29.95,ESE,110,7.0,-999.0,80,-99.99,,,-99.99,,2013-02-06 14:41:00,
2013-02-06 08:52:00,36.0,28.0,29.95,ESE,110,8.0,-999.0,74,-99.99,,,-99.99,,2013-02-06 14:52:00,
2013-02-06 09:01:00,36.0,28.0,29.95,ESE,110,8.0,-999.0,74,-99.99,,,-99.99,,2013-02-06 15:01:00,
2013-02-06 09:11:00,36.0,28.0,29.94,ESE,120,9.0,-999.0,74,-99.99,,,-99.99,,2013-02-06 15:11:00,
2013-02-06 09:21:00,36.0,30.0,29.94,SE,130,7.0,-999.0,80,-99.99,,,-99.99,,2013-02-06 15:21:00,
2013-02-06 09:31:00,37.0,30.0,29.94,SE,140,7.0,-999.0,74,-99.99,,,-99.99,,2013-02-06 15:31:00,
2013-02-06 09:41:00,39.0,32.0,29.95,SE,140,8.0,-999.0,75,-99.99,,,-99.99,,2013-02-06 15:41:00,
2013-02-06 09:51:00,41.0,34.0,29.94,SSE,150,14.0,-999.0,75,-99.99,,,-99.99,,2013-02-06 15:51:00,
2013-02-06 10:01:00,41.0,34.0,29.94,SSE,150,14.0,-999.0,75,-99.99,,,-99.99,,2013-02-06 16:01:00,
2013-02-06 10:11:00,43.0,34.0,29.94,SSE,150,12.0,-999.0,70,-99.99,,,-99.99,,2013-02-06 16:11:00,
2013-02-06 10:21:00,43.0,34.0,29.94,SSE,150,12.0,-999.0,70,-99.99,,,-99.99,,2013-02-06 16:21:00,
2013-02-06 10:32:00,43.0,34.0,29.95,SSE,150,9.0,-999.0,70,-99.99,,,-99.99,,2013-02-06 16:32:00,
2013-02-06 10:42:00,43.0,34.0,29.94,SSE,150,7.0,-999.0,70,-99.99,,,-99.99,,2013-02-06 16:42:00,
2013-02-06 10:51:00,43.0,34.0,29.94,SE,140,7.0,-999.0,70,-99.99,,,-99.99,,2013-02-06 16:51:00,
2013-02-06 11:02:00,43.0,34.0,29.94,SE,140,7.0,-999.0,70,-99.99,,,-99.99,,2013-02-06 17:02:00,
2013-02-06 11:11:00,45.0,37.0,29.93,SSE,150,9.0,-999.0,75,-99.99,,,-99.99,,2013-02-06 17:11:00,
2013-02-06 11:21:00,46.0,37.0,29.93,SSE,150,9.0,-999.0,70,-99.99,,,-99.99,,2013-02-06 17:21:00,
2013-02-06 11:32:00,46.0,37.0,29.92,ESE,120,7.0,-999.0,70,-99.99,,,-99.99,,2013-02-06 17:32:00,
2013-02-06 11:41:00,46.0,37.0,29.93,SE,130,8.0,-999.0,70,-99.99,,,-99.99,,2013-02-06 17:41:00,
2013-02-06 11:52:00,46.0,37.0,29.92,SE,130,8.0,-999.0,70,-99.99,,,-99.99,,2013-02-06 17:52:00,
2013-02-06 12:01:00,46.0,37.0,29.92,SE,130,8.0,-999.0,70,-99.99,,,-99.99,,2013-02-06 18:01:00,
2013-02-06 12:11:00,48.0,39.0,29.91,SE,140,10.0,-999.0,70,-99.99,,,-99.99,,2013-02-06 18:11:00,
2013-02-06 12:23:00,48.0,43.0,29.90,SSE,160,12.0,-999.0,81,-99.99,,,-99.99,,2013-02-06 18:23:00,
2013-02-06 12:32:00,48.0,43.0,29.89,SSE,160,13.0,-999.0,81,-99.99,,,-99.99,,2013-02-06 18:32:00,
2013-02-06 12:41:00,48.0,43.0,29.89,SSE,160,13.0,16.0,81,-99.99,,,-99.99,,2013-02-06 18:41:00,
2013-02-06 12:52:00,50.0,43.0,29.88,South,170,9.0,-999.0,76,-99.99,,,-99.99,,2013-02-06 18:52:00,
2013-02-06 13:01:00,50.0,43.0,29.88,South,170,9.0,-999.0,76,-99.99,,,-99.99,,2013-02-06 19:01:00,
2013-02-06 13:11:00,50.0,45.0,29.87,SSE,160,10.0,-999.0,81,-99.99,,,-99.99,,2013-02-06 19:11:00,
2013-02-06 13:21:00,52.0,45.0,29.86,SSE,160,9.0,-999.0,76,-99.99,,,-99.99,,2013-02-06 19:21:00,
2013-02-06 13:31:00,52.0,45.0,29.86,SSE,160,7.0,-999.0,76,-99.99,,,-99.99,,2013-02-06 19:31:00,
2013-02-06 13:41:00,52.0,45.0,29.85,SSE,150,6.0,-999.0,76,-99.99,,,-99.99,,2013-02-06 19:41:00,
2013-02-06 13:52:00,52.0,45.0,29.84,SE,140,7.0,-999.0,76,-99.99,,,-99.99,,2013-02-06 19:52:00,
2013-02-06 14:01:00,52.0,45.0,29.84,SE,140,7.0,-999.0,76,-99.99,,,-99.99,,2013-02-06 20:01:00,
2013-02-06 14:11:00,52.0,45.0,29.82,SE,140,9.0,-999.0,76,-99.99,,,-99.99,,2013-02-06 20:11:00,
2013-02-06 14:21:00,54.0,45.0,29.82,South,180,21.0,25.0,71,-99.99,,,-99.99,,2013-02-06 20:21:00,
2013-02-06 14:31:00,54.0,45.0,29.81,South,170,15.0,-999.0,71,-99.99,,,-99.99,,2013-02-06 20:31:00,
2013-02-06 14:41:00,55.0,45.0,29.81,South,170,15.0,-999.0,66,-99.99,,,-99.99,,2013-02-06 20:41:00,
2013-02-06 14:52:00,55.0,45.0,29.81,South,170,14.0,17.0,66,-99.99,,,-99.99,,2013-02-06 20:52:00,
2013-02-06 15:01:00,55.0,45.0,29.81,South,170,14.0,17.0,66,-99.99,,,-99.99,,2013-02-06 21:01:00,
2013-02-06 15:11:00,57.0,46.0,29.80,South,170,13.0,-999.0,67,-99.99,,,-99.99,,2013-02-06 21:11:00,
2013-02-06 15:21:00,57.0,46.0,29.79,South,170,12.0,-999.0,67,-99.99,,,-99.99,,2013-02-06 21:21:00,
2013-02-06 15:32:00,57.0,45.0,29.79,SE,140,10.0,-999.0,62,-99.99,,,-99.99,,2013-02-06 21:32:00,
2013-02-06 15:41:00,61.0,45.0,29.79,SSE,160,14.0,18.0,55,-99.99,,,-99.99,,2013-02-06 21:41:00,
2013-02-06 15:51:00,61.0,45.0,29.78,South,170,14.0,20.0,55,-99.99,,,-99.99,,2013-02-06 21:51:00,
2013-02-06 16:01:00,61.0,45.0,29.78,South,170,14.0,20.0,55,-99.99,,,-99.99,,2013-02-06 22:01:00,
2013-02-06 16:11:00,61.0,45.0,29.78,South,180,14.0,18.0,55,-99.99,,,-99.99,,2013-02-06 22:11:00,
2013-02-06 16:21:00,63.0,45.0,29.77,South,190,15.0,20.0,51,-99.99,,,-99.99,,2013-02-06 22:21:00,
2013-02-06 16:31:00,63.0,45.0,29.76,South,180,16.0,-999.0,51,-99.99,,,-99.99,,2013-02-06 22:31:00,
2013-02-06 16:41:00,63.0,45.0,29.76,South,190,14.0,-999.0,51,-99.99,,,-99.99,,2013-02-06 22:41:00,
2013-02-06 16:51:00,63.0,45.0,29.76,South,180,12.0,-999.0,51,-99.99,,,-99.99,,2013-02-06 22:51:00,
2013-02-06 17:01:00,63.0,45.0,29.76,South,180,12.0,-999.0,51,-99.99,,,-99.99,,2013-02-06 23:01:00,
2013-02-06 17:11:00,61.0,46.0,29.77,South,170,8.0,-999.0,59,-99.99,,,-99.99,,2013-02-06 23:11:00,
2013-02-06 17:21:00,61.0,46.0,29.77,South,170,8.0,-999.0,59,-99.99,,,-99.99,,2013-02-06 23:21:00,
2013-02-06 17:31:00,61.0,46.0,29.77,SSE,160,8.0,-999.0,59,-99.99,,,-99.99,,2013-02-06 23:31:00,
2013-02-06 17:41:00,59.0,46.0,29.77,South,170,7.0,-999.0,62,-99.99,,,-99.99,,2013-02-06 23:41:00,
2013-02-06 17:52:00,57.0,46.0,29.78,North,0,0.0,-999.0,67,-99.99,,,-99.99,,2013-02-06 23:52:00,
2013-02-06 18:01:00,57.0,46.0,29.78,North,0,0.0,-999.0,67,-99.99,,,-99.99,,2013-02-07 00:01:00,
2013-02-06 18:11:00,55.0,45.0,29.78,SSE,160,7.0,-999.0,66,-99.99,,,-99.99,,2013-02-07 00:11:00,
2013-02-06 18:21:00,55.0,46.0,29.79,SSE,160,8.0,-999.0,71,-99.99,,,-99.99,,2013-02-07 00:21:00,
2013-02-06 18:31:00,55.0,46.0,29.79,SSE,160,7.0,-999.0,71,-99.99,,,-99.99,,2013-02-07 00:31:00,
2013-02-06 18:41:00,55.0,46.0,29.80,SSE,160,6.0,-999.0,71,-99.99,,,-99.99,,2013-02-07 00:41:00,
2013-02-06 18:51:00,54.0,46.0,29.80,SSE,150,6.0,-999.0,76,-99.99,,,-99.99,,2013-02-07 00:51:00,
2013-02-06 19:01:00,54.0,46.0,29.80,SSE,150,6.0,-999.0,76,-99.99,,,-99.99,,2013-02-07 01:01:00,
2013-02-06 19:11:00,54.0,46.0,29.80,South,170,9.0,-999.0,76,-99.99,,,-99.99,,2013-02-07 01:11:00,
2013-02-06 19:21:00,52.0,46.0,29.81,SSE,160,8.0,-999.0,81,-99.99,,,-99.99,,2013-02-07 01:21:00,
2013-02-06 19:31:00,52.0,46.0,29.82,SE,140,6.0,-999.0,81,-99.99,,,-99.99,,2013-02-07 01:31:00,
2013-02-06 19:41:00,52.0,46.0,29.82,SSE,150,6.0,-999.0,81,-99.99,,,-99.99,,2013-02-07 01:41:00,
2013-02-06 19:52:00,52.0,46.0,29.82,SSE,150,7.0,-999.0,81,-99.99,,,-99.99,,2013-02-07 01:52:00,
2013-02-06 20:01:00,52.0,46.0,29.82,SSE,150,7.0,-999.0,81,-99.99,,,-99.99,,2013-02-07 02:01:00,
2013-02-06 20:11:00,50.0,46.0,29.82,SSE,150,8.0,-999.0,87,-99.99,,,-99.99,,2013-02-07 02:11:00,
2013-02-06 20:21:00,50.0,46.0,29.82,SE,140,7.0,-999.0,87,-99.99,,,-99.99,,2013-02-07 02:21:00,
2013-02-06 20:31:00,48.0,45.0,29.82,ESE,120,7.0,-999.0,87,-99.99,,,-99.99,,2013-02-07 02:31:00,
2013-02-06 20:41:00,48.0,45.0,29.82,ESE,120,7.0,-999.0,87,-99.99,,,-99.99,,2013-02-07 02:41:00,
2013-02-06 20:51:00,48.0,45.0,29.82,ESE,120,7.0,-999.0,87,-99.99,,,-99.99,,2013-02-07 02:51:00,
2013-02-06 21:02:00,48.0,45.0,29.82,SE,140,6.0,-999.0,87,-99.99,,,-99.99,,2013-02-07 03:02:00,
2013-02-06 21:11:00,48.0,45.0,29.82,SE,130,6.0,-999.0,87,-99.99,,,-99.99,,2013-02-07 03:11:00,
2013-02-06 21:21:00,48.0,46.0,29.82,ESE,120,6.0,-999.0,93,-99.99,,,-99.99,,2013-02-07 03:21:00,
2013-02-06 21:31:00,48.0,46.0,29.83,East,90,3.0,-999.0,93,-99.99,,,-99.99,,2013-02-07 03:31:00,
2013-02-06 21:41:00,48.0,46.0,29.83,East,100,3.0,-999.0,93,-99.99,,,-99.99,,2013-02-07 03:41:00,
2013-02-06 21:51:00,45.0,43.0,29.84,North,0,0.0,-999.0,93,-99.99,,,-99.99,,2013-02-07 03:51:00,
2013-02-06 22:01:00,45.0,43.0,29.84,North,0,0.0,-999.0,93,-99.99,,,-99.99,,2013-02-07 04:01:00,
2013-02-06 22:11:00,45.0,45.0,29.84,North,0,0.0,-999.0,100,-99.99,,,-99.99,,2013-02-07 04:11:00,
2013-02-06 22:22:00,45.0,45.0,29.84,North,0,0.0,-999.0,100,-99.99,,,-99.99,,2013-02-07 04:22:00,
2013-02-06 22:31:00,43.0,41.0,29.84,North,0,0.0,-999.0,93,-99.99,,,-99.99,,2013-02-07 04:31:00,
2013-02-06 22:41:00,41.0,39.0,29.84,North,0,0.0,-999.0,93,-99.99,,,-99.99,,2013-02-07 04:41:00,
2013-02-06 22:52:00,43.0,43.0,29.85,North,0,0.0,-999.0,100,-99.99,,,-99.99,,2013-02-07 04:52:00,
2013-02-06 23:02:00,43.0,43.0,29.85,North,0,0.0,-999.0,100,-99.99,,,-99.99,,2013-02-07 05:02:00,
2013-02-06 23:11:00,39.0,39.0,29.85,North,0,0.0,-999.0,100,-99.99,,,-99.99,,2013-02-07 05:11:00,
2013-02-06 23:21:00,39.0,39.0,29.86,North,0,0.0,-999.0,100,-99.99,,,-99.99,,2013-02-07 05:21:00,
2013-02-06 23:32:00,39.0,39.0,29.86,North,0,0.0,-999.0,100,-99.99,,,-99.99,,2013-02-07 05:32:00,
2013-02-06 23:42:00,39.0,39.0,29.86,North,0,0.0,-999.0,100,-99.99,,,-99.99,,2013-02-07 05:42:00,
2013-02-06 23:52:00,43.0,43.0,29.86,North,0,0.0,-999.0,100,-99.99,,,-99.99,,2013-02-07 05:52:00,